sensor_id;sensor_type;location;lat;lon;timestamp;P1;durP1;ratioP1;P2;durP2;ratioP2
57707;SDS011;43540;51.690;9.562;2023-07-28T10:03:49;7.15;;;5.13;;
57707;SDS011;43540;51.690;9.562;2023-07-28T10:06:18;5.80;;;4.60;;
57707;SDS011;43540;51.690;9.562;2023-07-28T11:35:10;6.97;;;4.72;;
57707;SDS011;43540;51.690;9.562;2023-07-28T11:37:51;5.72;;;4.85;;
57707;SDS011;43540;51.690;9.562;2023-07-28T11:40:20;5.47;;;4.70;;
57707;SDS011;43540;51.690;9.562;2023-07-28T11:42:50;8.55;;;4.63;;
57707;SDS011;43540;51.690;9.562;2023-07-28T11:45:19;5.38;;;4.68;;
57707;SDS011;43540;51.690;9.562;2023-07-28T11:47:58;5.60;;;4.80;;
57707;SDS011;43540;51.690;9.562;2023-07-28T11:50:27;6.78;;;5.00;;
57707;SDS011;43540;51.690;9.562;2023-07-28T11:53:01;6.72;;;5.03;;
57707;SDS011;43540;51.690;9.562;2023-07-28T11:55:28;5.28;;;4.22;;
57707;SDS011;43540;51.690;9.562;2023-07-28T11:57:55;5.30;;;4.72;;
57707;SDS011;43540;51.690;9.562;2023-07-28T12:00:28;5.95;;;4.40;;
57707;SDS011;43540;51.690;9.562;2023-07-28T12:05:39;5.45;;;4.50;;
57707;SDS011;43540;51.690;9.562;2023-07-28T12:08:11;6.00;;;4.75;;
57707;SDS011;43540;51.690;9.562;2023-07-28T12:10:49;6.47;;;4.82;;
57707;SDS011;43540;51.690;9.562;2023-07-28T12:13:49;5.55;;;4.63;;
57707;SDS011;43540;51.690;9.562;2023-07-28T12:19:10;5.65;;;4.72;;
57707;SDS011;43540;51.690;9.562;2023-07-28T12:21:37;5.38;;;4.72;;
57707;SDS011;43540;51.690;9.562;2023-07-28T12:24:03;5.55;;;4.70;;
57707;SDS011;43540;51.690;9.562;2023-07-28T12:26:33;5.95;;;4.65;;
57707;SDS011;43540;51.690;9.562;2023-07-28T12:29:03;6.15;;;4.75;;
57707;SDS011;43540;51.690;9.562;2023-07-28T12:31:36;5.57;;;4.93;;
57707;SDS011;43540;51.690;9.562;2023-07-28T12:34:05;5.65;;;4.60;;
57707;SDS011;43540;51.690;9.562;2023-07-28T12:36:32;5.70;;;4.55;;
57707;SDS011;43540;51.690;9.562;2023-07-28T12:39:18;5.03;;;4.43;;
57707;SDS011;43540;51.690;9.562;2023-07-28T12:41:48;6.00;;;4.55;;
57707;SDS011;43540;51.690;9.562;2023-07-28T12:44:35;5.32;;;4.20;;
57707;SDS011;43540;51.690;9.562;2023-07-28T12:47:05;5.47;;;4.15;;
57707;SDS011;43540;51.690;9.562;2023-07-28T12:49:32;5.20;;;4.03;;
57707;SDS011;43540;51.690;9.562;2023-07-28T12:52:01;6.05;;;5.07;;
57707;SDS011;43540;51.690;9.562;2023-07-28T12:54:31;7.72;;;5.13;;
57707;SDS011;43540;51.690;9.562;2023-07-28T12:57:09;6.35;;;5.13;;
57707;SDS011;43540;51.690;9.562;2023-07-28T12:59:39;5.90;;;5.30;;
57707;SDS011;43540;51.690;9.562;2023-07-28T13:02:08;6.45;;;4.95;;
57707;SDS011;43540;51.690;9.562;2023-07-28T13:04:35;6.18;;;4.57;;
57707;SDS011;43540;51.690;9.562;2023-07-28T13:07:01;5.28;;;4.28;;
57707;SDS011;43540;51.690;9.562;2023-07-28T13:09:31;7.20;;;4.57;;
57707;SDS011;43540;51.690;9.562;2023-07-28T13:12:01;5.80;;;4.80;;
57707;SDS011;43540;51.690;9.562;2023-07-28T13:14:30;4.97;;;4.30;;
57707;SDS011;43540;51.690;9.562;2023-07-28T13:16:57;5.00;;;4.45;;
57707;SDS011;43540;51.690;9.562;2023-07-28T13:19:24;6.18;;;4.65;;
57707;SDS011;43540;51.690;9.562;2023-07-28T13:21:51;6.18;;;4.25;;
57707;SDS011;43540;51.690;9.562;2023-07-28T13:24:18;6.45;;;4.22;;
57707;SDS011;43540;51.690;9.562;2023-07-28T13:26:44;4.75;;;4.10;;
57707;SDS011;43540;51.690;9.562;2023-07-28T13:29:11;11.63;;;4.45;;
57707;SDS011;43540;51.690;9.562;2023-07-28T13:31:37;6.18;;;4.32;;
57707;SDS011;43540;51.690;9.562;2023-07-28T13:34:04;5.22;;;4.30;;
57707;SDS011;43540;51.690;9.562;2023-07-28T13:36:30;6.50;;;4.28;;
57707;SDS011;43540;51.690;9.562;2023-07-28T13:38:57;7.90;;;4.40;;
57707;SDS011;43540;51.690;9.562;2023-07-28T13:41:23;5.03;;;4.18;;
57707;SDS011;43540;51.690;9.562;2023-07-28T13:43:50;4.97;;;4.32;;
57707;SDS011;43540;51.690;9.562;2023-07-28T13:46:16;6.80;;;4.68;;
57707;SDS011;43540;51.690;9.562;2023-07-28T13:48:43;5.82;;;4.68;;
57707;SDS011;43540;51.690;9.562;2023-07-28T13:51:19;5.03;;;4.10;;
57707;SDS011;43540;51.690;9.562;2023-07-28T13:53:51;6.22;;;4.10;;
57707;SDS011;43540;51.690;9.562;2023-07-28T13:56:21;5.35;;;4.35;;
57707;SDS011;43540;51.690;9.562;2023-07-28T13:58:47;6.55;;;4.38;;
57707;SDS011;43540;51.690;9.562;2023-07-28T14:01:17;5.72;;;4.40;;
57707;SDS011;43540;51.690;9.562;2023-07-28T14:03:44;5.85;;;4.10;;
57707;SDS011;43540;51.690;9.562;2023-07-28T14:06:11;4.75;;;3.90;;
57707;SDS011;43540;51.690;9.562;2023-07-28T14:08:37;6.00;;;4.53;;
57707;SDS011;43540;51.690;9.562;2023-07-28T14:11:04;7.35;;;4.38;;
57707;SDS011;43540;51.690;9.562;2023-07-28T14:13:30;5.20;;;4.30;;
57707;SDS011;43540;51.690;9.562;2023-07-28T14:15:59;6.20;;;4.30;;
57707;SDS011;43540;51.690;9.562;2023-07-28T14:18:25;5.50;;;4.50;;
57707;SDS011;43540;51.690;9.562;2023-07-28T14:20:52;6.72;;;4.68;;
57707;SDS011;43540;51.690;9.562;2023-07-28T14:23:25;7.05;;;4.70;;
57707;SDS011;43540;51.690;9.562;2023-07-28T14:25:53;6.13;;;4.43;;
57707;SDS011;43540;51.690;9.562;2023-07-28T14:28:20;5.57;;;4.57;;
57707;SDS011;43540;51.690;9.562;2023-07-28T14:30:48;5.72;;;4.68;;
57707;SDS011;43540;51.690;9.562;2023-07-28T14:33:17;8.73;;;4.20;;
57707;SDS011;43540;51.690;9.562;2023-07-28T14:35:45;5.78;;;4.03;;
57707;SDS011;43540;51.690;9.562;2023-07-28T14:38:13;5.80;;;4.30;;
57707;SDS011;43540;51.690;9.562;2023-07-28T14:40:39;5.55;;;4.13;;
57707;SDS011;43540;51.690;9.562;2023-07-28T14:43:06;6.60;;;4.10;;
57707;SDS011;43540;51.690;9.562;2023-07-28T14:45:33;4.95;;;3.88;;
57707;SDS011;43540;51.690;9.562;2023-07-28T14:47:59;5.22;;;4.18;;
57707;SDS011;43540;51.690;9.562;2023-07-28T14:50:27;4.78;;;4.00;;
57707;SDS011;43540;51.690;9.562;2023-07-28T14:52:53;5.50;;;4.22;;
57707;SDS011;43540;51.690;9.562;2023-07-28T14:55:20;5.20;;;3.92;;
57707;SDS011;43540;51.690;9.562;2023-07-28T14:57:46;4.97;;;3.80;;
57707;SDS011;43540;51.690;9.562;2023-07-28T15:00:13;5.00;;;4.05;;
57707;SDS011;43540;51.690;9.562;2023-07-28T15:02:39;5.05;;;4.30;;
57707;SDS011;43540;51.690;9.562;2023-07-28T15:05:06;5.10;;;4.22;;
57707;SDS011;43540;51.690;9.562;2023-07-28T15:07:33;4.70;;;4.10;;
57707;SDS011;43540;51.690;9.562;2023-07-28T15:10:01;5.22;;;4.35;;
57707;SDS011;43540;51.690;9.562;2023-07-28T15:12:29;5.03;;;3.83;;
57707;SDS011;43540;51.690;9.562;2023-07-28T15:14:57;5.07;;;3.63;;
57707;SDS011;43540;51.690;9.562;2023-07-28T15:17:23;4.13;;;3.00;;
57707;SDS011;43540;51.690;9.562;2023-07-28T15:19:50;4.30;;;3.30;;
57707;SDS011;43540;51.690;9.562;2023-07-28T15:22:16;3.85;;;3.10;;
57707;SDS011;43540;51.690;9.562;2023-07-28T15:24:43;3.15;;;2.80;;
57707;SDS011;43540;51.690;9.562;2023-07-28T15:27:09;4.03;;;3.15;;
57707;SDS011;43540;51.690;9.562;2023-07-28T15:29:37;2.65;;;2.45;;
57707;SDS011;43540;51.690;9.562;2023-07-28T15:32:03;3.33;;;2.80;;
57707;SDS011;43540;51.690;9.562;2023-07-28T15:34:30;4.50;;;3.05;;
57707;SDS011;43540;51.690;9.562;2023-07-28T15:36:57;4.13;;;3.20;;
57707;SDS011;43540;51.690;9.562;2023-07-28T15:39:27;5.13;;;3.30;;
57707;SDS011;43540;51.690;9.562;2023-07-28T15:41:54;4.28;;;3.60;;
57707;SDS011;43540;51.690;9.562;2023-07-28T15:44:20;3.42;;;3.13;;
57707;SDS011;43540;51.690;9.562;2023-07-28T15:46:47;4.25;;;3.20;;
57707;SDS011;43540;51.690;9.562;2023-07-28T15:49:14;4.05;;;3.17;;
57707;SDS011;43540;51.690;9.562;2023-07-28T15:51:41;4.90;;;3.30;;
57707;SDS011;43540;51.690;9.562;2023-07-28T15:54:07;4.85;;;3.42;;
57707;SDS011;43540;51.690;9.562;2023-07-28T15:56:34;7.05;;;3.47;;
57707;SDS011;43540;51.690;9.562;2023-07-28T15:59:00;3.47;;;3.08;;
57707;SDS011;43540;51.690;9.562;2023-07-28T16:01:27;3.28;;;2.97;;
57707;SDS011;43540;51.690;9.562;2023-07-28T16:03:53;3.33;;;3.00;;
57707;SDS011;43540;51.690;9.562;2023-07-28T16:06:20;3.92;;;2.80;;
57707;SDS011;43540;51.690;9.562;2023-07-28T16:08:46;2.83;;;2.63;;
57707;SDS011;43540;51.690;9.562;2023-07-28T16:11:13;3.67;;;3.00;;
57707;SDS011;43540;51.690;9.562;2023-07-28T16:13:39;4.18;;;3.00;;
57707;SDS011;43540;51.690;9.562;2023-07-28T16:16:06;5.25;;;3.22;;
57707;SDS011;43540;51.690;9.562;2023-07-28T16:18:33;3.88;;;3.15;;
57707;SDS011;43540;51.690;9.562;2023-07-28T16:20:59;4.03;;;3.47;;
57707;SDS011;43540;51.690;9.562;2023-07-28T16:23:26;3.35;;;3.00;;
57707;SDS011;43540;51.690;9.562;2023-07-28T16:25:52;4.25;;;2.78;;
57707;SDS011;43540;51.690;9.562;2023-07-28T16:28:19;3.97;;;2.95;;
57707;SDS011;43540;51.690;9.562;2023-07-28T16:30:45;4.25;;;3.00;;
57707;SDS011;43540;51.690;9.562;2023-07-28T16:33:12;11.00;;;5.88;;
57707;SDS011;43540;51.690;9.562;2023-07-28T16:35:39;3.72;;;3.40;;
57707;SDS011;43540;51.690;9.562;2023-07-28T16:38:05;4.68;;;3.20;;
57707;SDS011;43540;51.690;9.562;2023-07-28T16:40:33;7.25;;;4.13;;
57707;SDS011;43540;51.690;9.562;2023-07-28T16:43:00;3.95;;;2.88;;
57707;SDS011;43540;51.690;9.562;2023-07-28T16:45:27;3.88;;;3.33;;
57707;SDS011;43540;51.690;9.562;2023-07-28T16:47:53;4.20;;;3.30;;
57707;SDS011;43540;51.690;9.562;2023-07-28T16:50:20;3.15;;;2.83;;
57707;SDS011;43540;51.690;9.562;2023-07-28T16:52:47;4.40;;;3.28;;
57707;SDS011;43540;51.690;9.562;2023-07-28T16:55:14;4.38;;;3.28;;
57707;SDS011;43540;51.690;9.562;2023-07-28T16:57:40;3.22;;;2.80;;
57707;SDS011;43540;51.690;9.562;2023-07-28T17:00:07;2.83;;;2.53;;
57707;SDS011;43540;51.690;9.562;2023-07-28T17:02:34;3.22;;;2.45;;
57707;SDS011;43540;51.690;9.562;2023-07-28T17:05:01;3.17;;;2.70;;
57707;SDS011;43540;51.690;9.562;2023-07-28T17:07:28;4.65;;;2.53;;
57707;SDS011;43540;51.690;9.562;2023-07-28T17:09:54;4.05;;;2.95;;
57707;SDS011;43540;51.690;9.562;2023-07-28T17:12:21;3.85;;;2.45;;
57707;SDS011;43540;51.690;9.562;2023-07-28T17:14:48;6.32;;;2.78;;
57707;SDS011;43540;51.690;9.562;2023-07-28T17:17:14;2.92;;;2.50;;
57707;SDS011;43540;51.690;9.562;2023-07-28T17:19:41;3.13;;;2.33;;
57707;SDS011;43540;51.690;9.562;2023-07-28T17:22:07;3.00;;;2.70;;
57707;SDS011;43540;51.690;9.562;2023-07-28T17:24:34;2.70;;;2.47;;
57707;SDS011;43540;51.690;9.562;2023-07-28T17:27:00;2.28;;;2.08;;
57707;SDS011;43540;51.690;9.562;2023-07-28T17:29:27;3.60;;;2.60;;
57707;SDS011;43540;51.690;9.562;2023-07-28T17:31:53;2.72;;;2.20;;
57707;SDS011;43540;51.690;9.562;2023-07-28T17:34:20;2.42;;;2.20;;
57707;SDS011;43540;51.690;9.562;2023-07-28T17:36:47;2.63;;;2.20;;
57707;SDS011;43540;51.690;9.562;2023-07-28T17:39:14;2.35;;;2.15;;
57707;SDS011;43540;51.690;9.562;2023-07-28T17:41:40;3.10;;;2.22;;
57707;SDS011;43540;51.690;9.562;2023-07-28T17:44:07;2.78;;;2.15;;
57707;SDS011;43540;51.690;9.562;2023-07-28T17:46:34;2.35;;;2.15;;
57707;SDS011;43540;51.690;9.562;2023-07-28T17:49:00;2.67;;;2.13;;
57707;SDS011;43540;51.690;9.562;2023-07-28T17:51:27;2.30;;;1.90;;
57707;SDS011;43540;51.690;9.562;2023-07-28T17:53:53;2.78;;;2.28;;
57707;SDS011;43540;51.690;9.562;2023-07-28T17:56:21;2.58;;;2.30;;
57707;SDS011;43540;51.690;9.562;2023-07-28T17:58:48;4.07;;;2.30;;
57707;SDS011;43540;51.690;9.562;2023-07-28T18:01:15;4.97;;;2.60;;
57707;SDS011;43540;51.690;9.562;2023-07-28T18:03:42;2.35;;;2.00;;
57707;SDS011;43540;51.690;9.562;2023-07-28T18:06:09;2.47;;;2.28;;
57707;SDS011;43540;51.690;9.562;2023-07-28T18:08:35;2.97;;;2.28;;
57707;SDS011;43540;51.690;9.562;2023-07-28T18:11:02;2.70;;;2.50;;
57707;SDS011;43540;51.690;9.562;2023-07-28T18:13:29;3.05;;;2.20;;
57707;SDS011;43540;51.690;9.562;2023-07-28T18:15:55;2.58;;;2.38;;
57707;SDS011;43540;51.690;9.562;2023-07-28T18:18:22;3.20;;;2.13;;
57707;SDS011;43540;51.690;9.562;2023-07-28T18:20:49;2.40;;;2.20;;
57707;SDS011;43540;51.690;9.562;2023-07-28T18:23:15;2.40;;;2.20;;
57707;SDS011;43540;51.690;9.562;2023-07-28T18:25:42;2.85;;;2.10;;
57707;SDS011;43540;51.690;9.562;2023-07-28T18:28:09;2.97;;;2.30;;
57707;SDS011;43540;51.690;9.562;2023-07-28T18:30:36;2.97;;;2.33;;
57707;SDS011;43540;51.690;9.562;2023-07-28T18:33:03;4.95;;;2.78;;
57707;SDS011;43540;51.690;9.562;2023-07-28T18:35:29;3.55;;;1.92;;
57707;SDS011;43540;51.690;9.562;2023-07-28T18:37:56;7.45;;;2.78;;
57707;SDS011;43540;51.690;9.562;2023-07-28T18:40:23;2.58;;;2.17;;
57707;SDS011;43540;51.690;9.562;2023-07-28T18:42:55;2.60;;;2.40;;
57707;SDS011;43540;51.690;9.562;2023-07-28T18:45:22;2.30;;;2.10;;
57707;SDS011;43540;51.690;9.562;2023-07-28T18:47:48;2.85;;;2.45;;
57707;SDS011;43540;51.690;9.562;2023-07-28T18:50:15;3.75;;;2.50;;
57707;SDS011;43540;51.690;9.562;2023-07-28T18:52:41;4.28;;;2.58;;
57707;SDS011;43540;51.690;9.562;2023-07-28T18:55:08;2.38;;;2.03;;
57707;SDS011;43540;51.690;9.562;2023-07-28T18:57:35;2.40;;;2.20;;
57707;SDS011;43540;51.690;9.562;2023-07-28T19:00:01;2.63;;;2.08;;
57707;SDS011;43540;51.690;9.562;2023-07-28T19:02:30;3.22;;;2.50;;
57707;SDS011;43540;51.690;9.562;2023-07-28T19:04:57;2.45;;;2.25;;
57707;SDS011;43540;51.690;9.562;2023-07-28T19:07:24;2.30;;;2.10;;
57707;SDS011;43540;51.690;9.562;2023-07-28T19:09:50;2.58;;;2.22;;
57707;SDS011;43540;51.690;9.562;2023-07-28T19:12:17;3.85;;;2.50;;
57707;SDS011;43540;51.690;9.562;2023-07-28T19:14:44;6.40;;;2.55;;
57707;SDS011;43540;51.690;9.562;2023-07-28T19:17:11;3.00;;;2.63;;
57707;SDS011;43540;51.690;9.562;2023-07-28T19:19:39;3.40;;;2.63;;
57707;SDS011;43540;51.690;9.562;2023-07-28T19:22:07;4.50;;;3.05;;
57707;SDS011;43540;51.690;9.562;2023-07-28T19:24:35;4.57;;;2.63;;
57707;SDS011;43540;51.690;9.562;2023-07-28T19:27:02;3.45;;;2.55;;
57707;SDS011;43540;51.690;9.562;2023-07-28T19:29:29;6.45;;;3.10;;
57707;SDS011;43540;51.690;9.562;2023-07-28T19:31:56;6.13;;;4.10;;
57707;SDS011;43540;51.690;9.562;2023-07-28T19:34:23;6.93;;;3.42;;
57707;SDS011;43540;51.690;9.562;2023-07-28T19:36:50;4.22;;;2.83;;
57707;SDS011;43540;51.690;9.562;2023-07-28T19:39:16;3.35;;;2.65;;
57707;SDS011;43540;51.690;9.562;2023-07-28T19:41:43;3.67;;;2.40;;
57707;SDS011;43540;51.690;9.562;2023-07-28T19:44:09;3.20;;;2.67;;
57707;SDS011;43540;51.690;9.562;2023-07-28T19:46:36;5.05;;;2.65;;
57707;SDS011;43540;51.690;9.562;2023-07-28T19:49:03;4.75;;;2.80;;
57707;SDS011;43540;51.690;9.562;2023-07-28T19:51:30;4.63;;;3.00;;
57707;SDS011;43540;51.690;9.562;2023-07-28T19:53:56;5.13;;;3.17;;
57707;SDS011;43540;51.690;9.562;2023-07-28T19:56:26;3.45;;;2.80;;
57707;SDS011;43540;51.690;9.562;2023-07-28T19:58:53;4.57;;;2.70;;
57707;SDS011;43540;51.690;9.562;2023-07-28T20:01:21;2.97;;;2.60;;
57707;SDS011;43540;51.690;9.562;2023-07-28T20:03:50;3.45;;;2.72;;
57707;SDS011;43540;51.690;9.562;2023-07-28T20:06:17;2.85;;;2.55;;
57707;SDS011;43540;51.690;9.562;2023-07-28T20:08:44;4.05;;;2.38;;
57707;SDS011;43540;51.690;9.562;2023-07-28T20:11:10;3.65;;;2.97;;
57707;SDS011;43540;51.690;9.562;2023-07-28T20:13:37;3.30;;;2.42;;
57707;SDS011;43540;51.690;9.562;2023-07-28T20:16:04;2.40;;;2.20;;
57707;SDS011;43540;51.690;9.562;2023-07-28T20:18:33;2.50;;;2.30;;
57707;SDS011;43540;51.690;9.562;2023-07-28T20:20:59;2.70;;;2.20;;
57707;SDS011;43540;51.690;9.562;2023-07-28T20:23:26;2.45;;;2.20;;
57707;SDS011;43540;51.690;9.562;2023-07-28T20:25:53;2.28;;;2.08;;
57707;SDS011;43540;51.690;9.562;2023-07-28T20:28:21;2.13;;;1.90;;
57707;SDS011;43540;51.690;9.562;2023-07-28T20:30:48;1.85;;;1.75;;
57707;SDS011;43540;51.690;9.562;2023-07-28T20:33:15;2.17;;;1.67;;
57707;SDS011;43540;51.690;9.562;2023-07-28T20:35:42;4.72;;;1.92;;
57707;SDS011;43540;51.690;9.562;2023-07-28T20:38:09;2.28;;;1.85;;
57707;SDS011;43540;51.690;9.562;2023-07-28T20:40:35;1.90;;;1.67;;
57707;SDS011;43540;51.690;9.562;2023-07-28T20:43:02;2.65;;;2.05;;
57707;SDS011;43540;51.690;9.562;2023-07-28T20:45:29;2.22;;;1.85;;
57707;SDS011;43540;51.690;9.562;2023-07-28T20:47:55;2.42;;;1.65;;
57707;SDS011;43540;51.690;9.562;2023-07-28T20:50:22;2.85;;;1.80;;
57707;SDS011;43540;51.690;9.562;2023-07-28T20:52:49;3.33;;;2.03;;
57707;SDS011;43540;51.690;9.562;2023-07-28T20:55:16;1.83;;;1.65;;
57707;SDS011;43540;51.690;9.562;2023-07-28T20:57:43;3.70;;;2.20;;
57707;SDS011;43540;51.690;9.562;2023-07-28T21:00:09;2.15;;;1.95;;
57707;SDS011;43540;51.690;9.562;2023-07-28T21:02:37;2.17;;;1.98;;
57707;SDS011;43540;51.690;9.562;2023-07-28T21:05:04;1.98;;;1.70;;
57707;SDS011;43540;51.690;9.562;2023-07-28T21:07:31;1.98;;;1.80;;
57707;SDS011;43540;51.690;9.562;2023-07-28T21:09:59;2.50;;;2.10;;
57707;SDS011;43540;51.690;9.562;2023-07-28T21:12:25;1.83;;;1.67;;
57707;SDS011;43540;51.690;9.562;2023-07-28T21:14:52;2.03;;;1.85;;
57707;SDS011;43540;51.690;9.562;2023-07-28T21:17:19;2.45;;;1.83;;
57707;SDS011;43540;51.690;9.562;2023-07-28T21:19:46;2.17;;;1.90;;
57707;SDS011;43540;51.690;9.562;2023-07-28T21:22:13;1.65;;;1.55;;
57707;SDS011;43540;51.690;9.562;2023-07-28T21:24:39;2.20;;;1.80;;
57707;SDS011;43540;51.690;9.562;2023-07-28T21:27:06;1.67;;;1.48;;
57707;SDS011;43540;51.690;9.562;2023-07-28T21:29:35;1.52;;;1.42;;
57707;SDS011;43540;51.690;9.562;2023-07-28T21:32:05;1.60;;;1.50;;
57707;SDS011;43540;51.690;9.562;2023-07-28T21:34:32;1.50;;;1.40;;
57707;SDS011;43540;51.690;9.562;2023-07-28T21:36:59;2.00;;;1.60;;
57707;SDS011;43540;51.690;9.562;2023-07-28T21:39:26;1.70;;;1.60;;
57707;SDS011;43540;51.690;9.562;2023-07-28T21:41:52;2.20;;;1.73;;
57707;SDS011;43540;51.690;9.562;2023-07-28T21:44:20;2.30;;;2.00;;
57707;SDS011;43540;51.690;9.562;2023-07-28T21:46:47;1.60;;;1.50;;
57707;SDS011;43540;51.690;9.562;2023-07-28T21:49:14;1.65;;;1.55;;
57707;SDS011;43540;51.690;9.562;2023-07-28T21:51:41;1.60;;;1.40;;
57707;SDS011;43540;51.690;9.562;2023-07-28T21:54:08;2.08;;;1.20;;
57707;SDS011;43540;51.690;9.562;2023-07-28T21:56:34;1.95;;;1.30;;
57707;SDS011;43540;51.690;9.562;2023-07-28T21:59:01;2.03;;;1.35;;
57707;SDS011;43540;51.690;9.562;2023-07-28T22:01:28;1.63;;;1.52;;
57707;SDS011;43540;51.690;9.562;2023-07-28T22:03:55;2.95;;;1.70;;
57707;SDS011;43540;51.690;9.562;2023-07-28T22:06:22;3.50;;;2.85;;
57707;SDS011;43540;51.690;9.562;2023-07-28T22:08:49;4.28;;;3.10;;
57707;SDS011;43540;51.690;9.562;2023-07-28T22:11:15;4.20;;;3.40;;
57707;SDS011;43540;51.690;9.562;2023-07-28T22:13:42;3.22;;;2.70;;
57707;SDS011;43540;51.690;9.562;2023-07-28T22:16:08;4.20;;;1.75;;
57707;SDS011;43540;51.690;9.562;2023-07-28T22:18:35;3.28;;;2.10;;
57707;SDS011;43540;51.690;9.562;2023-07-28T22:21:01;1.92;;;1.70;;
57707;SDS011;43540;51.690;9.562;2023-07-28T22:23:28;4.18;;;1.90;;
57707;SDS011;43540;51.690;9.562;2023-07-28T22:25:54;3.75;;;3.03;;
57707;SDS011;43540;51.690;9.562;2023-07-28T22:28:21;9.30;;;6.65;;
57707;SDS011;43540;51.690;9.562;2023-07-28T22:30:48;12.65;;;9.57;;
57707;SDS011;43540;51.690;9.562;2023-07-28T22:33:14;8.25;;;6.60;;
57707;SDS011;43540;51.690;9.562;2023-07-28T22:35:41;7.35;;;5.40;;
57707;SDS011;43540;51.690;9.562;2023-07-28T22:38:08;7.43;;;5.22;;
57707;SDS011;43540;51.690;9.562;2023-07-28T22:40:35;5.90;;;4.80;;
57707;SDS011;43540;51.690;9.562;2023-07-28T22:43:01;5.50;;;3.45;;
57707;SDS011;43540;51.690;9.562;2023-07-28T22:45:28;3.63;;;3.00;;
57707;SDS011;43540;51.690;9.562;2023-07-28T22:47:54;2.63;;;2.33;;
57707;SDS011;43540;51.690;9.562;2023-07-28T22:50:21;2.60;;;2.10;;
57707;SDS011;43540;51.690;9.562;2023-07-28T22:52:48;3.05;;;1.80;;
57707;SDS011;43540;51.690;9.562;2023-07-28T22:55:14;3.38;;;1.85;;
57707;SDS011;43540;51.690;9.562;2023-07-28T22:57:42;3.05;;;1.80;;
57707;SDS011;43540;51.690;9.562;2023-07-28T23:00:11;2.33;;;1.75;;
57707;SDS011;43540;51.690;9.562;2023-07-28T23:02:38;1.92;;;1.67;;
57707;SDS011;43540;51.690;9.562;2023-07-28T23:05:06;2.03;;;1.55;;
57707;SDS011;43540;51.690;9.562;2023-07-28T23:07:35;1.90;;;1.70;;
57707;SDS011;43540;51.690;9.562;2023-07-28T23:10:03;3.22;;;1.92;;
57707;SDS011;43540;51.690;9.562;2023-07-28T23:12:30;2.10;;;1.90;;
57707;SDS011;43540;51.690;9.562;2023-07-28T23:14:57;3.25;;;2.25;;
57707;SDS011;43540;51.690;9.562;2023-07-28T23:17:24;2.25;;;2.05;;
57707;SDS011;43540;51.690;9.562;2023-07-28T23:19:50;4.55;;;2.70;;
57707;SDS011;43540;51.690;9.562;2023-07-28T23:22:17;3.58;;;2.15;;
57707;SDS011;43540;51.690;9.562;2023-07-28T23:24:44;3.00;;;1.70;;
57707;SDS011;43540;51.690;9.562;2023-07-28T23:27:10;5.03;;;2.10;;
57707;SDS011;43540;51.690;9.562;2023-07-28T23:29:37;2.28;;;1.75;;
57707;SDS011;43540;51.690;9.562;2023-07-28T23:32:03;1.75;;;1.65;;
57707;SDS011;43540;51.690;9.562;2023-07-28T23:34:30;1.60;;;1.50;;
57707;SDS011;43540;51.690;9.562;2023-07-28T23:37:00;5.82;;;1.83;;
57707;SDS011;43540;51.690;9.562;2023-07-28T23:39:27;2.67;;;1.77;;
57707;SDS011;43540;51.690;9.562;2023-07-28T23:41:54;1.85;;;1.70;;
57707;SDS011;43540;51.690;9.562;2023-07-28T23:44:20;3.25;;;1.48;;
57707;SDS011;43540;51.690;9.562;2023-07-28T23:46:47;7.15;;;1.90;;
57707;SDS011;43540;51.690;9.562;2023-07-28T23:49:14;2.83;;;1.80;;
57707;SDS011;43540;51.690;9.562;2023-07-28T23:51:40;2.58;;;1.92;;
57707;SDS011;43540;51.690;9.562;2023-07-28T23:54:07;1.48;;;1.38;;
57707;SDS011;43540;51.690;9.562;2023-07-28T23:56:33;1.75;;;1.50;;
57707;SDS011;43540;51.690;9.562;2023-07-28T23:59:01;2.08;;;1.70;;
